createdAt,value
2022-12-27T00:00:44.829Z,97450.16
2022-12-27T00:03:13.734Z,97437.69
2022-12-27T00:05:43.823Z,97437.97
2022-12-27T00:08:11.717Z,97442.28
2022-12-27T00:10:41.515Z,97448.78
2022-12-27T00:13:09.432Z,97448.72
2022-12-27T00:15:37.727Z,97451.28
2022-12-27T00:18:05.837Z,97457.00
2022-12-27T00:20:33.624Z,97456.44
2022-12-27T00:23:02.102Z,97464.44
2022-12-27T00:25:29.941Z,97471.63
2022-12-27T00:27:59.154Z,97471.72
2022-12-27T00:30:26.998Z,97475.03
2022-12-27T00:32:54.980Z,97476.72
2022-12-27T00:35:24.064Z,97472.03
2022-12-27T00:37:51.917Z,97472.53
2022-12-27T00:40:19.681Z,97474.59
2022-12-27T00:42:47.479Z,97481.88
2022-12-27T00:45:16.920Z,97490.72
2022-12-27T00:47:44.715Z,97493.63
2022-12-27T00:50:12.632Z,97499.75
2022-12-27T00:52:40.436Z,97503.44
2022-12-27T00:55:09.197Z,97506.34
2022-12-27T00:57:36.995Z,97514.13
2022-12-27T01:00:10.183Z,97514.63
2022-12-27T01:02:39.834Z,97519.03
2022-12-27T01:05:08.358Z,97534.84
2022-12-27T01:07:36.224Z,97534.13
2022-12-27T01:10:04.643Z,97533.38
2022-12-27T01:12:32.500Z,97535.25
2022-12-27T01:15:00.359Z,97531.94
2022-12-27T01:17:30.274Z,97546.78
2022-12-27T01:19:59.544Z,97546.13
2022-12-27T01:22:27.456Z,97539.25
2022-12-27T01:24:55.306Z,97541.06
2022-12-27T01:27:23.265Z,97546.03
2022-12-27T01:29:51.049Z,97553.06
2022-12-27T01:32:18.984Z,97552.34
2022-12-27T01:34:46.797Z,97563.66
2022-12-27T01:37:15.951Z,97556.81
2022-12-27T01:39:43.818Z,97566.34
2022-12-27T01:42:34.628Z,97570.03
2022-12-27T01:45:04.001Z,97576.22
2022-12-27T01:47:44.183Z,97572.13
2022-12-27T01:50:19.392Z,97584.59
2022-12-27T01:52:52.845Z,97584.63
2022-12-27T01:55:28.556Z,97586.63
2022-12-27T01:58:00.789Z,97588.50
2022-12-27T02:00:28.817Z,97587.38
2022-12-27T02:02:57.384Z,97586.53
2022-12-27T02:05:26.600Z,97593.44
2022-12-27T02:08:10.315Z,97591.84
2022-12-27T02:10:39.571Z,97590.97
2022-12-27T02:13:07.627Z,97590.88
2022-12-27T02:15:35.872Z,97588.16
2022-12-27T02:18:03.959Z,97591.81
2022-12-27T02:20:44.117Z,97594.59
2022-12-27T02:23:53.479Z,97594.59
2022-12-27T02:26:38.076Z,97599.81
2022-12-27T02:29:19.208Z,97600.69
2022-12-27T02:31:53.117Z,97605.94
2022-12-27T02:34:26.000Z,97598.28
2022-12-27T02:36:59.768Z,97606.22
2022-12-27T02:39:29.972Z,97605.34
2022-12-27T02:42:16.326Z,97607.22
2022-12-27T02:45:03.669Z,97605.38
2022-12-27T02:47:49.883Z,97609.81
2022-12-27T02:50:36.060Z,97612.66
2022-12-27T02:53:11.374Z,97615.63
2022-12-27T02:56:13.364Z,97614.81
2022-12-27T03:02:15.256Z,97628.59
2022-12-27T03:05:03.275Z,97635.63
2022-12-27T03:07:41.520Z,97636.63
2022-12-27T03:10:35.020Z,97634.97
2022-12-27T03:13:39.768Z,97629.09
2022-12-27T03:16:17.217Z,97636.13
2022-12-27T03:19:00.172Z,97630.06
2022-12-27T03:21:49.127Z,97629.91
2022-12-27T03:24:37.321Z,97645.59
2022-12-27T03:27:10.703Z,97641.34
2022-12-27T03:29:56.907Z,97642.34
2022-12-27T03:32:39.870Z,97650.41
2022-12-27T03:35:16.566Z,97652.09
2022-12-27T03:38:05.283Z,97648.50
2022-12-27T03:40:40.321Z,97652.88
2022-12-27T03:43:12.818Z,97655.41
2022-12-27T03:46:16.796Z,97660.75
2022-12-27T03:49:06.804Z,97653.91
2022-12-27T03:51:41.504Z,97658.34
2022-12-27T03:54:16.643Z,97655.25
2022-12-27T03:56:44.562Z,97662.28
2022-12-27T03:59:13.644Z,97659.94
2022-12-27T04:01:43.061Z,97667.78
2022-12-27T04:04:11.039Z,97659.38
2022-12-27T04:06:40.757Z,97675.97
2022-12-27T04:09:28.076Z,97665.81
2022-12-27T04:12:13.760Z,97664.88
2022-12-27T04:14:59.276Z,97662.50
2022-12-27T04:17:45.263Z,97659.88
2022-12-27T04:20:30.639Z,97665.19
2022-12-27T04:23:17.701Z,97661.88
2022-12-27T04:26:03.650Z,97664.56
2022-12-27T04:28:48.931Z,97666.47
2022-12-27T04:31:34.907Z,97664.03
2022-12-27T04:34:20.149Z,97651.94
2022-12-27T04:36:48.537Z,97656.16
2022-12-27T04:39:17.837Z,97657.00
2022-12-27T04:42:03.261Z,97660.47
2022-12-27T04:44:59.973Z,97656.03
2022-12-27T04:47:45.719Z,97665.72
2022-12-27T04:50:40.623Z,97667.34
2022-12-27T04:53:29.060Z,97662.28
2022-12-27T04:55:58.446Z,97669.13
2022-12-27T04:58:26.788Z,97664.00
2022-12-27T05:01:19.062Z,97660.47
2022-12-27T05:03:49.565Z,97668.41
2022-12-27T05:06:18.477Z,97668.63
2022-12-27T05:09:09.352Z,97671.03
2022-12-27T05:11:56.184Z,97667.59
2022-12-27T05:14:24.024Z,97665.88
2022-12-27T05:16:51.874Z,97665.00
2022-12-27T05:19:19.719Z,97675.38
2022-12-27T05:22:01.487Z,97671.84
2022-12-27T05:24:48.123Z,97685.88
2022-12-27T05:27:17.348Z,97680.84
2022-12-27T05:29:45.288Z,97691.41
2022-12-27T05:32:13.913Z,97686.22
2022-12-27T05:34:42.062Z,97688.81
2022-12-27T05:37:10.077Z,97693.34
2022-12-27T05:39:37.985Z,97692.50
2022-12-27T05:42:06.415Z,97689.91
2022-12-27T05:44:35.637Z,97700.34
2022-12-27T05:47:03.528Z,97699.66
2022-12-27T05:49:31.403Z,97706.75
2022-12-27T05:51:59.240Z,97708.44
2022-12-27T05:54:27.104Z,97711.03
2022-12-27T05:56:55.311Z,97712.06
2022-12-27T05:59:23.168Z,97719.19
2022-12-27T06:01:52.676Z,97716.59
2022-12-27T06:04:20.663Z,97724.44
2022-12-27T06:06:48.550Z,97721.09
2022-12-27T06:09:16.552Z,97723.72
2022-12-27T06:11:44.456Z,97728.81
2022-12-27T06:14:12.569Z,97728.81
2022-12-27T06:16:40.515Z,97727.00
2022-12-27T06:19:09.814Z,97722.94
2022-12-27T06:21:37.656Z,97719.53
2022-12-27T06:24:06.189Z,97725.91
2022-12-27T06:26:34.481Z,97724.22
2022-12-27T06:29:02.308Z,97722.59
2022-12-27T06:31:30.379Z,97722.66
2022-12-27T06:33:58.522Z,97724.38
2022-12-27T06:36:29.636Z,97726.16
2022-12-27T06:38:57.591Z,97724.41
2022-12-27T06:41:25.861Z,97722.81
2022-12-27T06:43:56.951Z,97734.94
2022-12-27T06:46:25.638Z,97734.19
2022-12-27T06:48:53.899Z,97737.66
2022-12-27T06:51:22.604Z,97741.16
2022-12-27T06:53:51.838Z,97738.59
2022-12-27T06:56:21.865Z,97741.25
2022-12-27T06:58:51.106Z,97738.47
2022-12-27T07:01:21.800Z,97744.66
2022-12-27T07:03:51.384Z,97752.53
2022-12-27T07:06:20.111Z,97756.59
2022-12-27T07:08:48.399Z,97753.22
2022-12-27T07:11:19.093Z,97758.34
2022-12-27T07:13:48.647Z,97755.75
2022-12-27T07:16:19.121Z,97765.34
2022-12-27T07:18:49.844Z,97771.63
2022-12-27T07:21:20.292Z,97772.44
2022-12-27T07:23:48.867Z,97779.50
2022-12-27T07:26:19.661Z,97767.41
2022-12-27T07:28:48.264Z,97768.28
2022-12-27T07:31:18.203Z,97775.25
2022-12-27T07:33:46.744Z,97777.94
2022-12-27T07:36:17.469Z,97775.31
2022-12-27T07:38:45.989Z,97777.88
2022-12-27T07:41:14.563Z,97777.88
2022-12-27T07:43:44.718Z,97778.69
2022-12-27T07:46:14.793Z,97782.22
2022-12-27T07:48:43.230Z,97780.44
2022-12-27T07:51:11.708Z,97778.69
2022-12-27T07:53:40.112Z,97789.84
2022-12-27T07:56:09.183Z,97774.28
2022-12-27T07:58:38.603Z,97782.03
2022-12-27T08:01:09.195Z,97784.66
2022-12-27T08:03:37.617Z,97784.50
2022-12-27T08:06:06.462Z,97777.44
2022-12-27T08:08:39.627Z,97780.75
2022-12-27T08:11:08.214Z,97778.03
2022-12-27T08:13:36.588Z,97779.69
2022-12-27T08:16:05.481Z,97777.00
2022-12-27T08:18:35.289Z,97774.25
2022-12-27T08:21:03.195Z,97765.50
2022-12-27T08:23:30.984Z,97767.16
2022-12-27T08:25:58.817Z,97770.56
2022-12-27T08:28:28.181Z,97771.41
2022-12-27T08:30:56.165Z,97777.16
2022-12-27T08:33:24.949Z,97768.25
2022-12-27T08:35:55.000Z,97770.63
2022-12-27T08:38:23.537Z,97767.88
2022-12-27T08:40:52.450Z,97772.97
2022-12-27T08:43:21.322Z,97766.72
2022-12-27T08:45:49.137Z,97776.19
2022-12-27T08:48:17.179Z,97770.03
2022-12-27T08:50:45.188Z,97768.84
2022-12-27T08:53:14.535Z,97769.66
2022-12-27T08:55:42.371Z,97773.91
2022-12-27T08:58:15.988Z,97772.09
2022-12-27T09:00:44.740Z,97776.34
2022-12-27T09:03:12.805Z,97779.72
2022-12-27T09:05:42.072Z,97774.38
2022-12-27T09:08:10.920Z,97779.41
2022-12-27T09:10:40.137Z,97787.25
2022-12-27T09:13:08.120Z,97782.78
2022-12-27T09:15:36.106Z,97790.41
2022-12-27T09:18:04.119Z,97790.44
2022-12-27T09:20:32.013Z,97792.13
2022-12-27T09:23:00.367Z,97805.19
2022-12-27T09:25:28.291Z,97809.34
2022-12-27T09:27:57.479Z,97802.16
2022-12-27T09:30:25.476Z,97815.19
2022-12-27T09:32:53.349Z,97813.41
2022-12-27T09:35:21.150Z,97805.56
2022-12-27T09:37:48.986Z,97805.47
2022-12-27T09:40:19.714Z,97798.44
2022-12-27T09:43:12.599Z,97805.19
2022-12-27T09:45:50.073Z,97800.81
2022-12-27T09:48:31.021Z,97805.09
2022-12-27T09:51:05.280Z,97791.84
2022-12-27T09:53:42.792Z,97792.56
2022-12-27T09:56:14.033Z,97796.78
2022-12-27T09:58:48.429Z,97796.69
2022-12-27T10:01:22.577Z,97788.00
2022-12-27T10:03:51.278Z,97790.47
2022-12-27T10:06:42.893Z,97785.91
2022-12-27T10:09:30.664Z,97779.72
2022-12-27T10:12:05.691Z,97783.88
2022-12-27T10:14:49.716Z,97779.50
2022-12-27T10:17:35.996Z,97776.81
2022-12-27T10:20:19.179Z,97781.97
2022-12-27T10:22:50.518Z,97778.31
2022-12-27T10:25:23.216Z,97772.94
2022-12-27T10:27:52.334Z,97771.91
2022-12-27T10:30:21.989Z,97764.84
2022-12-27T10:32:51.556Z,97772.56
2022-12-27T10:35:21.075Z,97764.53
2022-12-27T10:37:50.033Z,97758.50
2022-12-27T10:40:23.633Z,97759.19
2022-12-27T10:43:03.755Z,97760.81
2022-12-27T10:45:34.744Z,97756.22
2022-12-27T10:48:17.826Z,97762.19
2022-12-27T10:50:49.883Z,97770.84
2022-12-27T10:53:31.021Z,97774.16
2022-12-27T10:56:08.805Z,97779.28
2022-12-27T10:58:41.019Z,97780.03
2022-12-27T11:01:17.535Z,97774.69
2022-12-27T11:03:47.143Z,97771.03
2022-12-27T11:06:24.602Z,97770.84
2022-12-27T11:08:54.407Z,97768.94
2022-12-27T11:11:24.481Z,97770.56
2022-12-27T11:13:53.078Z,97767.81
2022-12-27T11:16:29.060Z,97776.56
2022-12-27T11:19:00.171Z,97777.28
2022-12-27T11:21:30.468Z,97775.47
2022-12-27T11:24:01.937Z,97769.22
2022-12-27T11:26:40.566Z,97772.50
2022-12-27T11:29:19.397Z,97777.53
2022-12-27T11:31:49.350Z,97772.97
2022-12-27T11:34:22.303Z,97771.88
2022-12-27T11:36:52.489Z,97774.22
2022-12-27T11:39:44.011Z,97774.78
2022-12-27T11:42:19.255Z,97776.41
2022-12-27T11:44:56.405Z,97776.94
2022-12-27T11:47:33.076Z,97764.59
2022-12-27T11:50:23.124Z,97764.34
2022-12-27T11:53:22.238Z,97758.91
2022-12-27T11:56:14.476Z,97760.47
2022-12-27T11:59:03.223Z,97752.53
2022-12-27T12:01:46.247Z,97748.88
2022-12-27T12:04:54.680Z,97747.22
2022-12-27T12:07:43.233Z,97751.66
2022-12-27T12:10:23.166Z,97753.25
2022-12-27T12:13:10.936Z,97737.41
2022-12-27T12:15:57.589Z,97738.16
2022-12-27T12:18:40.409Z,97745.09
2022-12-27T12:21:31.820Z,97741.44
2022-12-27T12:24:38.743Z,97746.53
2022-12-27T12:27:25.630Z,97741.97
2022-12-27T12:30:27.048Z,97743.38
2022-12-27T12:33:37.477Z,97741.41
2022-12-27T12:36:26.728Z,97740.41
2022-12-27T12:39:02.734Z,97733.34
2022-12-27T12:41:55.407Z,97738.41
2022-12-27T12:44:45.524Z,97731.53
2022-12-27T12:47:27.978Z,97733.94
2022-12-27T12:50:13.174Z,97734.78
2022-12-27T12:53:01.808Z,97727.59
2022-12-27T12:55:40.831Z,97730.88
2022-12-27T12:58:25.628Z,97737.78
2022-12-27T13:01:08.674Z,97742.88
2022-12-27T13:03:59.328Z,97741.09
2022-12-27T13:06:49.088Z,97740.00
2022-12-27T13:09:31.185Z,97730.38
2022-12-27T13:12:06.040Z,97725.13
2022-12-27T13:14:56.164Z,97726.81
2022-12-27T13:17:32.958Z,97720.66
2022-12-27T13:20:23.212Z,97724.97
2022-12-27T13:23:04.264Z,97720.47
2022-12-27T13:25:42.298Z,97715.28
2022-12-27T13:28:29.825Z,97714.22
2022-12-27T13:31:07.131Z,97723.94
2022-12-27T13:33:48.500Z,97718.88
2022-12-27T13:36:28.037Z,97718.88
2022-12-27T13:39:15.225Z,97719.78
2022-12-27T13:41:59.332Z,97724.31
2022-12-27T13:44:44.282Z,97712.84
2022-12-27T13:47:42.963Z,97714.88
2022-12-27T13:50:56.571Z,97703.69
2022-12-27T13:54:05.990Z,97707.94
2022-12-27T13:56:57.226Z,97711.41
2022-12-27T13:59:44.835Z,97702.59
2022-12-27T14:02:45.554Z,97704.38
2022-12-27T14:06:00.918Z,97702.81
2022-12-27T14:08:49.904Z,97707.28
2022-12-27T14:11:34.211Z,97701.44
2022-12-27T14:14:05.148Z,97713.75
2022-12-27T14:16:43.439Z,97706.03
2022-12-27T14:19:50.666Z,97705.34
2022-12-27T14:22:35.192Z,97707.13
2022-12-27T14:25:44.548Z,97706.34
2022-12-27T14:29:03.243Z,97709.22
2022-12-27T14:32:22.397Z,97708.53
2022-12-27T14:35:30.099Z,97707.00
2022-12-27T14:38:36.964Z,97708.81
2022-12-27T14:41:37.419Z,97709.00
2022-12-27T14:44:50.121Z,97715.28
2022-12-27T14:47:55.824Z,97714.75
2022-12-27T14:51:03.612Z,97721.81
2022-12-27T14:54:16.212Z,97724.75
2022-12-27T14:56:57.137Z,97724.81
2022-12-27T14:59:37.832Z,97720.41
2022-12-27T15:02:30.868Z,97718.75
2022-12-27T15:05:21.391Z,97719.75
2022-12-27T15:08:29.613Z,97718.94
2022-12-27T15:11:09.227Z,97717.47
2022-12-27T15:13:52.688Z,97714.03
2022-12-27T15:16:35.214Z,97704.38
2022-12-27T15:19:17.541Z,97706.25
2022-12-27T15:21:55.353Z,97703.63
2022-12-27T15:24:41.416Z,97696.94
2022-12-27T15:27:20.311Z,97688.22
2022-12-27T15:30:03.674Z,97687.56
2022-12-27T15:32:48.259Z,97682.56
2022-12-27T15:35:33.601Z,97675.94
2022-12-27T15:38:09.304Z,97678.72
2022-12-27T15:40:48.039Z,97673.66
2022-12-27T15:43:55.919Z,97665.81
2022-12-27T15:46:50.318Z,97665.31
2022-12-27T15:49:51.895Z,97673.22
2022-12-27T15:52:27.944Z,97673.56
2022-12-27T15:55:18.560Z,97669.53
2022-12-27T15:58:08.504Z,97669.75
2022-12-27T16:00:37.203Z,97670.78
2022-12-27T16:03:35.984Z,97670.91
2022-12-27T16:06:05.133Z,97664.19
2022-12-27T16:08:38.991Z,97661.84
2022-12-27T16:11:12.113Z,97665.41
2022-12-27T16:13:46.837Z,97670.88
2022-12-27T16:16:57.429Z,97668.63
2022-12-27T16:20:02.926Z,97671.25
2022-12-27T16:22:37.969Z,97670.53
2022-12-27T16:25:31.029Z,97674.03
2022-12-27T16:28:07.706Z,97673.38
2022-12-27T16:30:47.815Z,97673.47
2022-12-27T16:33:33.985Z,97671.66
2022-12-27T16:36:18.587Z,97672.66
2022-12-27T16:38:49.556Z,97679.66
2022-12-27T16:41:30.376Z,97677.03
2022-12-27T16:44:13.620Z,97675.53
2022-12-27T16:47:08.291Z,97677.34
2022-12-27T16:49:56.587Z,97672.31
2022-12-27T16:52:48.819Z,97676.81
2022-12-27T16:55:37.408Z,97675.31
2022-12-27T16:58:24.513Z,97678.63
2022-12-27T17:00:54.006Z,97681.31
2022-12-27T17:03:32.265Z,97668.22
2022-12-27T17:09:33.802Z,97659.56
2022-12-27T17:12:19.491Z,97666.81
2022-12-27T17:14:47.917Z,97656.38
2022-12-27T17:17:20.789Z,97658.13
2022-12-27T17:19:55.170Z,97661.84
2022-12-27T17:22:28.834Z,97658.38
2022-12-27T17:25:03.962Z,97651.50
2022-12-27T17:27:45.017Z,97648.19
2022-12-27T17:30:22.942Z,97651.09
2022-12-27T17:33:17.933Z,97655.63
2022-12-27T17:36:00.274Z,97654.19
2022-12-27T17:38:39.517Z,97649.09
2022-12-27T17:41:18.888Z,97637.00
2022-12-27T17:44:16.136Z,97628.47
2022-12-27T17:46:55.587Z,97626.13
2022-12-27T17:49:28.057Z,97614.16
2022-12-27T17:52:14.877Z,97614.22
2022-12-27T17:55:00.311Z,97614.50
2022-12-27T17:57:46.894Z,97613.09
2022-12-27T18:00:23.829Z,97629.75
2022-12-27T18:02:53.144Z,97629.75
2022-12-27T18:05:27.379Z,97630.53
2022-12-27T18:08:02.966Z,97624.53
2022-12-27T18:10:31.739Z,97618.50
2022-12-27T18:13:03.781Z,97617.78
2022-12-27T18:15:34.686Z,97616.28
2022-12-27T18:18:05.185Z,97617.47
2022-12-27T18:20:36.451Z,97612.28
2022-12-27T18:23:19.179Z,97612.91
2022-12-27T18:25:53.246Z,97607.03
2022-12-27T18:28:30.485Z,97609.63
2022-12-27T18:31:05.772Z,97621.28
2022-12-27T18:33:35.807Z,97622.25
2022-12-27T18:36:06.901Z,97619.69
2022-12-27T18:38:38.794Z,97603.09
2022-12-27T18:41:09.679Z,97599.50
2022-12-27T18:43:44.698Z,97589.03
2022-12-27T18:46:17.497Z,97583.19
2022-12-27T18:48:46.212Z,97585.91
2022-12-27T18:51:14.371Z,97582.56
2022-12-27T18:53:43.898Z,97579.06
2022-12-27T18:56:29.100Z,97578.03
2022-12-27T18:59:03.681Z,97574.66
2022-12-27T19:01:39.553Z,97579.97
2022-12-27T19:04:23.466Z,97573.94
2022-12-27T19:06:56.100Z,97562.81
2022-12-27T19:09:27.255Z,97560.88
2022-12-27T19:11:57.403Z,97557.34
2022-12-27T19:14:30.434Z,97562.78
2022-12-27T19:17:06.981Z,97571.00
2022-12-27T19:19:38.614Z,97566.75
2022-12-27T19:22:34.526Z,97570.44
2022-12-27T19:25:05.554Z,97562.63
2022-12-27T19:27:33.484Z,97562.78
2022-12-27T19:30:02.723Z,97562.03
2022-12-27T19:32:35.354Z,97562.09
2022-12-27T19:35:05.998Z,97557.75
2022-12-27T19:37:35.626Z,97561.22
2022-12-27T19:40:03.713Z,97562.88
2022-12-27T19:42:34.913Z,97547.63
2022-12-27T19:45:04.654Z,97552.94
2022-12-27T19:47:34.808Z,97540.03
2022-12-27T19:50:02.662Z,97550.38
2022-12-27T19:52:30.749Z,97547.03
2022-12-27T19:55:02.661Z,97543.72
2022-12-27T19:57:30.485Z,97543.72
2022-12-27T19:59:58.362Z,97535.91
2022-12-27T20:02:27.756Z,97535.09
2022-12-27T20:04:56.523Z,97530.84
2022-12-27T20:07:26.414Z,97526.69
2022-12-27T20:09:54.400Z,97528.53
2022-12-27T20:12:22.185Z,97530.28
2022-12-27T20:14:50.077Z,97530.22
2022-12-27T20:17:17.947Z,97525.97
2022-12-27T20:19:47.312Z,97523.34
2022-12-27T20:22:15.229Z,97521.00
2022-12-27T20:24:43.057Z,97524.44
2022-12-27T20:27:10.885Z,97533.22
2022-12-27T20:29:38.720Z,97527.19
2022-12-27T20:32:06.948Z,97524.56
2022-12-27T20:34:34.841Z,97521.16
2022-12-27T20:37:04.498Z,97519.44
2022-12-27T20:39:32.304Z,97513.22
2022-12-27T20:42:00.437Z,97507.09
2022-12-27T20:44:29.100Z,97502.81
2022-12-27T20:46:56.885Z,97505.38
2022-12-27T20:49:24.857Z,97500.22
2022-12-27T20:51:52.978Z,97496.69
2022-12-27T20:54:22.490Z,97495.09
2022-12-27T20:56:50.355Z,97491.41
2022-12-27T20:59:18.161Z,97495.00
2022-12-27T21:01:46.143Z,97478.69
2022-12-27T21:04:14.246Z,97491.78
2022-12-27T21:06:42.090Z,97496.91
2022-12-27T21:09:10.143Z,97489.09
2022-12-27T21:11:39.705Z,97485.53
2022-12-27T21:14:07.616Z,97485.38
2022-12-27T21:16:36.472Z,97484.47
2022-12-27T21:19:05.321Z,97489.78
2022-12-27T21:21:35.487Z,97484.81
2022-12-27T21:24:03.984Z,97481.50
2022-12-27T21:26:33.864Z,97486.59
2022-12-27T21:29:05.300Z,97487.50
2022-12-27T21:31:33.449Z,97496.16
2022-12-27T21:34:02.338Z,97499.81
2022-12-27T21:36:34.015Z,97504.22
2022-12-27T21:39:03.045Z,97490.59
2022-12-27T21:41:33.103Z,97490.44
2022-12-27T21:44:01.290Z,97493.06
2022-12-27T21:46:32.416Z,97495.78
2022-12-27T21:49:01.788Z,97497.56
2022-12-27T21:51:30.734Z,97496.75
2022-12-27T21:53:58.756Z,97501.22
2022-12-27T21:56:27.625Z,97498.63
2022-12-27T21:58:56.403Z,97496.13
2022-12-27T22:01:25.686Z,97501.31
2022-12-27T22:03:56.829Z,97492.53
2022-12-27T22:06:27.193Z,97490.00
2022-12-27T22:08:57.183Z,97479.69
2022-12-27T22:11:25.800Z,97473.56
2022-12-27T22:13:53.795Z,97480.53
2022-12-27T22:16:23.968Z,97470.13
2022-12-27T22:18:52.324Z,97476.25
2022-12-27T22:21:24.619Z,97469.22
2022-12-27T22:23:55.078Z,97470.16
2022-12-27T22:26:24.999Z,97467.56
2022-12-27T22:28:52.915Z,97465.88
2022-12-27T22:31:22.835Z,97454.50
2022-12-27T22:33:51.561Z,97450.16
2022-12-27T22:36:22.785Z,97442.13
2022-12-27T22:38:53.556Z,97446.25
2022-12-27T22:41:25.850Z,97441.91
2022-12-27T22:43:55.502Z,97443.47
2022-12-27T22:46:23.534Z,97446.06
2022-12-27T22:48:52.477Z,97445.19
2022-12-27T22:51:24.365Z,97442.72
2022-12-27T22:53:52.712Z,97441.06
2022-12-27T22:56:22.485Z,97442.03
2022-12-27T22:58:50.937Z,97439.41
2022-12-27T23:01:21.069Z,97436.94
2022-12-27T23:03:49.686Z,97433.63
2022-12-27T23:06:18.783Z,97437.91
2022-12-27T23:08:48.694Z,97433.63
2022-12-27T23:11:18.597Z,97430.28
2022-12-27T23:13:47.316Z,97435.41
2022-12-27T23:16:15.952Z,97431.03
2022-12-27T23:18:43.875Z,97438.91
2022-12-27T23:21:21.800Z,97424.13
2022-12-27T23:23:53.902Z,97424.19
2022-12-27T23:26:24.023Z,97423.25
2022-12-27T23:28:53.399Z,97426.53
2022-12-27T23:31:22.845Z,97428.31
2022-12-27T23:33:51.085Z,97426.63
2022-12-27T23:36:20.511Z,97424.84
2022-12-27T23:38:49.013Z,97419.63
2022-12-27T23:41:21.043Z,97413.53
2022-12-27T23:43:52.658Z,97413.53
2022-12-27T23:46:23.729Z,97400.53
2022-12-27T23:48:51.942Z,97406.50
2022-12-27T23:51:20.619Z,97413.59
2022-12-27T23:53:48.614Z,97408.41
2022-12-27T23:56:19.941Z,97400.72
2022-12-27T23:58:48.716Z,97386.81
